North Dighton, MA

41° 51' 30"N, 71° 08' 44"W, Elevation 95 ft.
Eastern Time

Hourly observations for the last 72 hours

Date Time Temperature (°F) Humi-
dity

(%)
Wind
(mph)
Pressure Rain (in) Sun
(W/m2)
UV ET
(in)
Air Dew 6 Hour 1 Hr 3 Hr 6 Hr Day
Alt
(in)
Sea
Level

(mb)
Max Min
23 21:00 21.4 7.3 54 NW 11 G 18 29.95 1014.2 0.00 0 0.0 0.071
23 20:00 22.5 7.5 52 NW 11 G 24 29.94 1014.1 0.00 0 0.0 0.069
23 19:00 23.2 8.2 30.2 23.2 52 NW 11 G 18 29.94 1013.9 0.00 0 0.0 0.067
23 18:00 24.3 7.9 49 NNW 14 G 21 29.92 1013.3 0.00 0 0.0 0.065
23 17:00 25.9 8.9 48 NNW 12 G 25 29.90 1012.6 0.00 0 0.0 0.062
23 16:00 27.5 9.4 46 NW 15 G 21 29.87 1011.6 0.00 63 0.0 0.058
23 15:00 28.4 10.7 47 NW 16 G 24 29.86 1011.1 0.00 167 0.0 0.051
23 14:00 29.1 12.8 50 NW 12 G 30 29.84 1010.5 0.00 311 0.7 0.043
23 13:00 30.1 12.8 30.7 27.1 48 WNW 11 G 21 29.83 1010.1 0.00 566 1.1 0.034
23 12:00 30.1 14.1 51 NNW 16 G 26 29.83 1010.3 0.00 557 1.2 0.025
23 11:00 29.2 14.2 53 NW 15 G 28 29.85 1010.8 0.00 501 1.1 0.017
23 10:00 29.5 15.7 56 NW 15 G 23 29.86 1011.2 0.00 390 0.8 0.011
23 09:00 28.1 15.6 59 NNW 14 G 21 29.85 1010.9 0.00 264 0.0 0.008
23 08:00 27.3 15.6 61 NW 12 G 17 29.85 1010.8 0.00 93 0.0 0.006
23 07:00 28.2 16.5 31.6 28.2 61 WNW 7 G 16 29.84 1010.4 0.00 0 0.0 0.005
23 06:00 29.6 19.3 65 NW 7 G 13 29.82 1009.9 0.00 0 0.0 0.004
23 05:00 30.3 20.3 66 WNW 8 G 16 29.81 1009.6 0.00 0 0.0 0.003
23 04:00 31.0 20.6 65 WNW 10 G 17 29.81 1009.5 0.00 0 0.0 0.002
23 03:00 31.1 22.1 69 W 5 G 10 29.81 1009.4 0.00 0 0.0 0.001
23 02:00 31.3 22.7 70 WNW 8 G 11 29.80 1009.2 0.00 0 0.0 0.000
23 01:00 31.6 23.6 36.3 31.6 72 W 4 G 6 29.79 1008.7 0.00 0 0.0 0.000
23 00:00 32.1 25.1 75 WNW 5 G 10 29.78 1008.4 0.00 0 0.0 0.050
22 23:00 33.2 26.5 76 NW 7 G 13 29.77 1008.2 0.00 0 0.0 0.050
22 22:00 33.2 26.5 76 WNW 4 G 8 29.76 1007.8 0.00 0 0.0 0.050
22 21:00 35.6 27.1 71 WNW 4 G 7 29.75 1007.3 0.00 0 0.0 0.049
22 20:00 35.8 27.3 71 WNW 4 G 10 29.72 1006.5 0.00 0 0.0 0.049
22 19:00 31.8 25.1 44.3 31.8 76 W 3 G 7 29.71 1006.0 0.00 0 0.0 0.049
22 18:00 37.6 26.1 63 NW 1 G 2 29.69 1005.5 0.00 0 0.0 0.048
22 17:00 39.7 27.4 61 NW 4 G 13 29.67 1004.7 0.00 0 0.0 0.046
22 16:00 40.7 27.1 58 NNW 10 G 13 29.64 1003.8 0.00 23 0.0 0.043
22 15:00 41.5 27.0 56 NNW 10 G 18 29.62 1003.1 0.00 63 0.0 0.039
22 14:00 44.0 28.0 53 NW 12 G 17 29.59 1002.2 0.00 120 0.0 0.030
22 13:00 42.9 29.1 43.0 27.0 58 WNW 12 G 17 29.58 1001.6 0.00 503 1.1 0.020
22 12:00 41.4 29.4 62 NNW 12 G 17 29.59 1001.9 0.00 512 1.2 0.010
22 11:00 40.6 30.5 67 NW 9 G 13 29.60 1002.4 0.00 369 0.9 0.004
22 10:00 37.9 29.0 70 W 4 G 8 29.62 1002.9 0.00 251 0.6 0.001
22 09:00 32.4 28.1 84 W 1 G 2 29.60 1002.5 0.00 144 0.0 0.000
22 08:00 28.3 25.7 90 SSW 1 G 2 29.58 1001.8 0.00 39 0.0 0.000
22 07:00 27.1 24.0 31.9 27.0 88 W 1 G 3 29.57 1001.4 0.00 0 0.0 0.000
22 06:00 28.1 24.5 86 W 1 G 2 29.56 1001.0 0.00 0 0.0 0.000
22 05:00 30.1 25.6 83 WSW 2 G 4 29.55 1000.8 0.00 0 0.0 0.000
22 04:00 29.7 24.6 81 NW 0 G 1 29.56 1001.0 0.00 0 0.0 0.000
22 03:00 31.7 25.0 76 SW 2 G 4 29.57 1001.2 0.00 0 0.0 0.000
22 02:00 31.1 25.0 78 WSW 2 G 5 29.57 1001.3 0.00 0 0.0 0.000
22 01:00 27.1 23.2 32.3 24.7 85 S 2 G 3 29.56 1001.1 0.00 0 0.0 0.000
22 00:00 28.3 23.5 82 SW 1 G 3 29.58 1001.8 0.00 0 0.0 0.027
21 23:00 25.7 22.4 87 WSW 1 G 4 29.60 1002.5 0.00 0 0.0 0.027
21 22:00 25.2 22.4 89 SW 2 G 4 29.61 1002.9 0.00 0 0.0 0.027
21 21:00 25.6 22.3 87 W 0 G 2 29.62 1003.0 0.00 0 0.0 0.027
21 20:00 28.3 23.5 82 W 2 G 3 29.62 1003.0 0.00 0 0.0 0.027
21 19:00 32.3 24.0 35.1 30.3 71 WSW 2 G 5 29.62 1003.1 0.00 0 0.0 0.027
21 18:00 30.4 24.7 79 W 3 G 5 29.62 1003.1 0.00 0 0.0 0.027
21 17:00 33.9 25.5 71 WSW 0 G 1 29.61 1002.9 0.00 0 0.0 0.027
21 16:00 35.0 25.9 69 WSW 2 G 6 29.62 1003.1 0.00 18 0.0 0.026
21 15:00 34.5 25.7 70 SSW 4 G 8 29.63 1003.5 0.00 62 0.0 0.025
21 14:00 33.4 25.0 71 SSW 6 G 11 29.66 1004.3 0.00 60 0.0 0.022
21 13:00 32.6 22.9 32.6 18.6 67 SSW 10 G 16 29.69 1005.5 0.00 209 0.6 0.018
21 12:00 31.2 19.3 61 SW 6 G 12 29.74 1007.2 0.00 294 0.9 0.013
21 11:00 28.5 16.0 59 S 3 G 12 29.78 1008.7 0.00 148 0.5 0.009
21 10:00 26.6 14.2 59 S 9 G 14 29.82 1009.8 0.00 482 0.8 0.005
21 09:00 23.8 12.3 61 S 4 G 9 29.85 1010.8 0.00 142 0.0 0.003
21 08:00 20.4 12.2 70 S 2 G 4 29.85 1010.8 0.00 141 0.0 0.003
21 07:00 18.9 11.1 24.0 18.9 71 S 2 G 3 29.87 1011.5 0.00 0 0.0 0.003
21 06:00 19.9 11.4 69 S 1 G 3 29.88 1011.9 0.00 0 0.0 0.003
21 05:00 20.4 10.9 66 W 3 G 4 29.91 1013.0 0.00 0 0.0 0.003
21 04:00 20.2 10.7 66 W 2 G 5 29.91 1013.0 0.00 0 0.0 0.003
21 03:00 21.6 10.9 63 WNW 4 G 10 29.95 1014.1 0.00 0 0.0 0.002
21 02:00 22.5 11.8 63 WNW 6 G 11 29.96 1014.6 0.00 0 0.0 0.001
21 01:00 24.0 12.5 30.6 24.0 61 NW 6 G 14 29.95 1014.2 0.00 0 0.0 0.000
21 00:00 25.1 12.4 58 NW 6 G 14 29.94 1013.8 0.01 0 0.0 0.037
20 23:00 26.0 14.4 61 NW 6 G 14 29.93 1013.5 0.01 0 0.0 0.036
20 22:00 27.5 16.2 62 NW 7 G 12 29.93 1013.5 0.01 0 0.0 0.035

Data generated by WxSolution Version 1.9.1.8, Build 2020.04.28.